createdAt,value
2018-06-09T01:32:19.940Z,90.07
2018-06-09T01:32:20.516Z,90.36
2018-06-09T01:32:21.114Z,90.45
2018-06-09T01:32:21.714Z,90.45
2018-06-09T01:32:22.314Z,90.45
2018-06-09T01:32:22.914Z,90.26
2018-06-09T01:32:23.514Z,90.55
2018-06-09T01:32:24.113Z,90.36
2018-06-09T01:33:18.618Z,89.78
2018-06-09T01:33:19.190Z,89.88
2018-06-09T01:33:19.791Z,89.69
2018-06-09T01:33:20.390Z,89.69
2018-06-09T01:33:20.990Z,89.78
2018-06-09T01:33:21.591Z,89.88
2018-06-09T01:33:22.190Z,89.88
2018-06-09T01:33:22.789Z,89.88
2018-06-09T01:34:17.294Z,89.78
2018-06-09T01:34:17.868Z,89.88
2018-06-09T01:34:18.467Z,89.78
2018-06-09T01:34:19.067Z,90.07
2018-06-09T01:34:19.670Z,89.78
2018-06-09T01:34:20.267Z,89.69
2018-06-09T01:34:20.866Z,89.50
2018-06-09T01:34:21.468Z,89.40
2018-06-09T01:35:14.949Z,87.96
2018-06-09T01:35:15.520Z,88.06
2018-06-09T01:35:16.119Z,88.34
2018-06-09T01:35:16.720Z,88.24
2018-06-09T01:35:17.320Z,88.06
2018-06-09T01:35:17.919Z,88.24
2018-06-09T01:35:18.519Z,88.24
2018-06-09T01:35:19.119Z,88.34
2018-06-09T01:36:12.601Z,89.21
2018-06-09T01:36:13.172Z,89.30
2018-06-09T01:36:13.772Z,89.30
2018-06-09T01:36:14.372Z,89.69
2018-06-09T01:36:14.971Z,89.50
2018-06-09T01:36:15.570Z,89.59
2018-06-09T01:36:16.172Z,89.59
2018-06-09T01:36:16.770Z,89.59
2018-06-09T01:37:11.273Z,89.21
2018-06-09T01:37:11.847Z,89.11
2018-06-09T01:37:12.447Z,89.30
2018-06-09T01:37:13.048Z,89.11
2018-06-09T01:37:13.647Z,88.82
2018-06-09T01:37:14.247Z,88.82
2018-06-09T01:37:14.846Z,88.44
2018-06-09T01:37:15.449Z,89.11
2018-06-09T01:38:08.930Z,89.98
2018-06-09T01:38:09.500Z,89.78
2018-06-09T01:38:10.100Z,89.78
2018-06-09T01:38:10.701Z,89.78
2018-06-09T01:38:11.299Z,89.78
2018-06-09T01:38:11.900Z,89.50
2018-06-09T01:38:12.503Z,89.98
2018-06-09T01:38:13.100Z,89.69
2018-06-09T01:39:07.602Z,89.98
2018-06-09T01:39:08.176Z,89.59
2018-06-09T01:39:08.775Z,89.59
2018-06-09T01:39:09.375Z,89.40
2018-06-09T01:39:09.976Z,89.88
2018-06-09T01:39:10.577Z,89.50
2018-06-09T01:39:11.175Z,89.88
2018-06-09T01:39:11.774Z,89.50
2018-06-09T01:40:05.256Z,90.26
2018-06-09T01:40:05.827Z,90.17
2018-06-09T01:40:06.433Z,90.31
2018-06-09T01:40:07.027Z,90.26
2018-06-09T01:40:07.626Z,89.98
2018-06-09T01:40:08.228Z,90.07
2018-06-09T01:40:08.826Z,90.45
2018-06-09T01:40:09.427Z,90.45
2018-06-09T01:41:03.930Z,89.88
2018-06-09T01:41:04.502Z,89.98
2018-06-09T01:41:05.102Z,90.26
2018-06-09T01:41:05.703Z,89.98
2018-06-09T01:41:06.301Z,90.12
2018-06-09T01:41:06.904Z,90.31
2018-06-09T01:41:07.501Z,90.17
2018-06-09T01:41:08.102Z,90.26
2018-06-09T01:42:01.584Z,90.94
2018-06-09T01:42:02.154Z,90.94
2018-06-09T01:42:02.756Z,90.94
2018-06-09T01:42:03.357Z,90.26
2018-06-09T01:42:03.967Z,89.92
2018-06-09T01:42:04.554Z,89.98
2018-06-09T01:42:05.154Z,90.36
2018-06-09T01:42:05.754Z,89.98
2018-06-09T01:42:59.235Z,89.88
2018-06-09T01:42:59.806Z,90.07
2018-06-09T01:43:00.406Z,90.36
2018-06-09T01:43:01.007Z,90.41
2018-06-09T01:43:01.607Z,90.36
2018-06-09T01:43:02.206Z,90.17
2018-06-09T01:43:02.806Z,90.26
2018-06-09T01:43:03.405Z,90.36
2018-06-09T01:43:57.911Z,89.78
2018-06-09T01:43:58.482Z,89.98
2018-06-09T01:43:59.085Z,89.88
2018-06-09T01:43:59.681Z,89.88
2018-06-09T01:44:00.279Z,89.88
2018-06-09T01:44:00.880Z,89.98
2018-06-09T01:44:01.482Z,89.88
2018-06-09T01:44:02.080Z,89.59
2018-06-09T01:44:55.561Z,89.92
2018-06-09T01:44:56.136Z,89.92
2018-06-09T01:44:56.735Z,89.88
2018-06-09T01:44:57.334Z,89.83
2018-06-09T01:44:57.934Z,89.92
2018-06-09T01:44:58.534Z,89.92
2018-06-09T01:44:59.134Z,90.12
2018-06-09T01:44:59.734Z,89.98
2018-06-09T01:45:54.238Z,91.90
2018-06-09T01:45:54.809Z,91.85
2018-06-09T01:45:55.407Z,91.85
2018-06-09T01:45:56.012Z,92.09
2018-06-09T01:45:56.608Z,92.19
2018-06-09T01:45:57.209Z,91.46
2018-06-09T01:45:57.812Z,92.23
2018-06-09T01:45:58.408Z,92.57
2018-06-09T01:46:53.425Z,92.47
2018-06-09T01:46:53.998Z,92.61
2018-06-09T01:46:54.597Z,92.38
2018-06-09T01:46:55.201Z,92.61
2018-06-09T01:46:55.798Z,92.47
2018-06-09T01:46:56.396Z,92.61
2018-06-09T01:47:51.382Z,92.33
2018-06-09T01:47:51.956Z,92.33
2018-06-09T01:47:52.556Z,92.38
2018-06-09T01:47:53.155Z,92.52
2018-06-09T01:47:53.759Z,92.23
2018-06-09T01:47:54.354Z,92.33
2018-06-09T01:47:54.955Z,92.52
2018-06-09T01:47:55.555Z,92.52
2018-06-09T01:48:49.034Z,93.68
2018-06-09T01:48:49.609Z,93.68
2018-06-09T01:48:50.209Z,93.87
2018-06-09T01:48:50.808Z,93.87
2018-06-09T01:48:51.410Z,93.96
2018-06-09T01:48:52.009Z,94.25
2018-06-09T01:48:52.609Z,94.15
2018-06-09T01:48:53.210Z,94.06
2018-06-09T01:49:47.712Z,94.54
2018-06-09T01:49:48.288Z,94.35
2018-06-09T01:49:48.888Z,94.25
2018-06-09T01:49:49.483Z,94.06
2018-06-09T01:49:50.083Z,93.87
2018-06-09T01:49:50.682Z,93.87
2018-06-09T01:49:51.284Z,93.68
2018-06-09T01:49:51.886Z,93.87
2018-06-09T01:50:45.366Z,93.00
2018-06-09T01:50:45.936Z,92.61
2018-06-09T01:50:46.535Z,92.81
2018-06-09T01:50:47.135Z,92.71
2018-06-09T01:50:47.734Z,92.71
2018-06-09T01:50:48.336Z,92.81
2018-06-09T01:50:48.935Z,92.61
2018-06-09T01:50:49.535Z,92.43
2018-06-09T01:51:44.039Z,93.58
2018-06-09T01:51:44.612Z,93.87
2018-06-09T01:51:45.211Z,93.68
2018-06-09T01:51:45.814Z,93.48
2018-06-09T01:51:46.412Z,93.68
2018-06-09T01:51:47.011Z,93.58
2018-06-09T01:51:47.619Z,93.77
2018-06-09T01:51:48.211Z,93.58
2018-06-09T01:52:41.690Z,93.68
2018-06-09T01:52:42.266Z,93.58
2018-06-09T01:52:42.863Z,93.48
2018-06-09T01:52:43.465Z,93.68
2018-06-09T01:52:44.064Z,93.58
2018-06-09T01:52:44.662Z,93.48
2018-06-09T01:52:45.264Z,93.87
2018-06-09T01:52:45.864Z,93.96
2018-06-09T01:53:39.449Z,94.25
2018-06-09T01:53:40.020Z,94.45
2018-06-09T01:53:40.618Z,94.15
2018-06-09T01:53:41.221Z,94.25
2018-06-09T01:53:41.819Z,94.25
2018-06-09T01:53:42.418Z,94.25
2018-06-09T01:53:43.018Z,94.35
2018-06-09T01:53:43.625Z,94.54
2018-06-09T01:54:38.122Z,93.77
2018-06-09T01:54:38.695Z,93.68
2018-06-09T01:54:39.295Z,93.72
2018-06-09T01:54:39.891Z,93.68
2018-06-09T01:54:40.492Z,93.96
2018-06-09T01:54:41.091Z,93.68
2018-06-09T01:54:41.694Z,93.68
2018-06-09T01:54:42.292Z,93.68
2018-06-09T01:55:35.774Z,94.45
2018-06-09T01:55:36.346Z,94.25
2018-06-09T01:55:36.945Z,94.15
2018-06-09T01:55:37.546Z,94.10
2018-06-09T01:55:38.145Z,94.25
2018-06-09T01:55:38.744Z,93.77
2018-06-09T01:55:39.345Z,94.30
2018-06-09T01:55:39.945Z,94.30
2018-06-09T01:56:34.450Z,94.83
2018-06-09T01:56:35.024Z,94.25
2018-06-09T01:56:35.621Z,94.30
2018-06-09T01:56:36.220Z,94.45
2018-06-09T01:56:36.821Z,94.25
2018-06-09T01:56:37.421Z,94.49
2018-06-09T01:56:38.021Z,94.59
2018-06-09T01:56:38.620Z,94.45
2018-06-09T01:57:32.204Z,95.36
2018-06-09T01:57:32.781Z,95.26
2018-06-09T01:57:33.374Z,95.21
2018-06-09T01:57:33.975Z,95.07
2018-06-09T01:57:34.576Z,95.12
2018-06-09T01:57:35.174Z,95.26
2018-06-09T01:57:35.775Z,94.83
2018-06-09T01:57:36.375Z,95.26
2018-06-09T01:58:29.957Z,95.45
2018-06-09T01:58:30.530Z,95.36
2018-06-09T01:58:31.129Z,95.26
2018-06-09T01:58:31.732Z,95.45
2018-06-09T01:58:32.327Z,95.45
2018-06-09T01:58:32.926Z,95.45
2018-06-09T01:58:33.527Z,95.45
2018-06-09T01:58:34.127Z,95.45
2018-06-09T01:59:27.712Z,93.82
2018-06-09T01:59:28.287Z,93.72
2018-06-09T01:59:28.885Z,93.91
2018-06-09T01:59:29.484Z,93.91
2018-06-09T01:59:30.088Z,93.91
2018-06-09T01:59:30.685Z,93.91
2018-06-09T01:59:31.285Z,93.72
2018-06-09T01:59:31.883Z,93.91
2018-06-09T02:00:26.387Z,94.20
2018-06-09T02:00:26.959Z,94.40
2018-06-09T02:00:27.558Z,94.40
2018-06-09T02:00:28.157Z,94.30
2018-06-09T02:00:28.758Z,94.30
2018-06-09T02:00:29.358Z,94.20
2018-06-09T02:00:29.957Z,94.10
2018-06-09T02:00:30.559Z,94.49
2018-06-09T02:01:24.141Z,93.24
2018-06-09T02:01:24.713Z,93.33
2018-06-09T02:01:25.314Z,93.24
2018-06-09T02:01:25.913Z,93.43
2018-06-09T02:01:26.514Z,93.33
2018-06-09T02:01:27.113Z,93.33
2018-06-09T02:01:27.713Z,93.43
2018-06-09T02:01:28.313Z,93.43
2018-06-09T02:02:22.817Z,94.01
2018-06-09T02:02:23.389Z,93.82
2018-06-09T02:02:23.988Z,94.01
2018-06-09T02:02:24.588Z,93.82
2018-06-09T02:02:25.188Z,94.01
2018-06-09T02:02:25.788Z,93.82
2018-06-09T02:02:26.387Z,93.72
2018-06-09T02:02:26.988Z,94.01
2018-06-09T02:03:20.571Z,94.10
2018-06-09T02:03:21.144Z,93.72
2018-06-09T02:03:21.743Z,93.33
2018-06-09T02:03:22.344Z,93.72
2018-06-09T02:03:22.944Z,93.33
2018-06-09T02:03:23.543Z,94.10
2018-06-09T02:03:24.146Z,93.72
2018-06-09T02:03:24.744Z,93.72
2018-06-09T02:04:19.247Z,94.10
2018-06-09T02:04:19.819Z,94.10
2018-06-09T02:04:20.420Z,94.20
2018-06-09T02:04:21.021Z,94.10
2018-06-09T02:04:21.618Z,94.20
2018-06-09T02:04:22.219Z,94.20
2018-06-09T02:04:22.819Z,94.20
2018-06-09T02:04:23.420Z,94.10
2018-06-09T02:05:16.898Z,95.36
2018-06-09T02:05:17.471Z,94.78
2018-06-09T02:05:18.071Z,95.26
2018-06-09T02:05:18.669Z,95.26
2018-06-09T02:05:19.270Z,94.78
2018-06-09T02:05:19.870Z,95.17
2018-06-09T02:05:20.470Z,94.78
2018-06-09T02:05:21.073Z,94.78
2018-06-09T02:06:14.551Z,95.45
2018-06-09T02:06:15.122Z,95.55
2018-06-09T02:06:15.723Z,95.07
2018-06-09T02:06:16.323Z,95.26
2018-06-09T02:06:16.921Z,95.26
2018-06-09T02:06:17.522Z,95.26
2018-06-09T02:06:18.121Z,95.26
2018-06-09T02:06:18.724Z,95.36
2018-06-09T02:07:13.226Z,95.94
2018-06-09T02:07:13.798Z,96.03
2018-06-09T02:07:14.401Z,96.12
2018-06-09T02:07:14.998Z,95.84
2018-06-09T02:07:15.598Z,95.94
2018-06-09T02:07:16.197Z,95.84
2018-06-09T02:07:16.797Z,95.94
2018-06-09T02:07:17.396Z,95.74
2018-06-09T02:08:11.901Z,95.26
2018-06-09T02:08:12.474Z,95.26
2018-06-09T02:08:13.071Z,94.97
2018-06-09T02:08:13.672Z,95.26
2018-06-09T02:08:14.275Z,95.26
2018-06-09T02:08:14.873Z,94.87
2018-06-09T02:08:15.472Z,95.07
2018-06-09T02:08:16.087Z,95.17
2018-06-09T02:09:09.658Z,95.65
2018-06-09T02:09:10.228Z,95.65
2018-06-09T02:09:10.829Z,95.55
2018-06-09T02:09:11.428Z,95.84
2018-06-09T02:09:12.033Z,95.55
2018-06-09T02:09:12.627Z,95.84
2018-06-09T02:09:13.229Z,95.17
2018-06-09T02:09:13.828Z,95.36
2018-06-09T02:10:07.412Z,95.26
2018-06-09T02:10:07.986Z,94.97
2018-06-09T02:10:08.583Z,95.26
2018-06-09T02:10:09.183Z,95.17
2018-06-09T02:10:09.784Z,95.17
2018-06-09T02:10:10.383Z,95.17
2018-06-09T02:10:10.982Z,94.97
2018-06-09T02:10:11.582Z,95.36
2018-06-09T02:11:06.156Z,95.36
2018-06-09T02:11:06.661Z,95.36
2018-06-09T02:11:07.258Z,95.36
2018-06-09T02:11:07.859Z,95.26
2018-06-09T02:11:08.459Z,95.36
2018-06-09T02:11:09.059Z,95.07
2018-06-09T02:11:09.663Z,95.07
2018-06-09T02:11:10.259Z,95.07
2018-06-09T02:12:03.840Z,95.07
2018-06-09T02:12:04.412Z,95.26
2018-06-09T02:12:05.014Z,95.36
2018-06-09T02:12:05.613Z,95.36
2018-06-09T02:12:06.213Z,95.26
2018-06-09T02:12:06.811Z,95.26
2018-06-09T02:12:07.416Z,95.26
2018-06-09T02:12:08.011Z,96.03
2018-06-09T02:13:02.519Z,95.45
2018-06-09T02:13:03.088Z,95.65
2018-06-09T02:13:03.687Z,95.45
2018-06-09T02:13:04.287Z,95.55
2018-06-09T02:13:04.889Z,95.36
2018-06-09T02:13:05.487Z,95.36
2018-06-09T02:13:06.088Z,95.07
2018-06-09T02:13:06.686Z,95.07
2018-06-09T02:14:01.193Z,95.84
2018-06-09T02:14:01.765Z,95.65
2018-06-09T02:14:02.364Z,95.74
2018-06-09T02:14:02.965Z,95.65
2018-06-09T02:14:03.565Z,95.65
2018-06-09T02:14:04.163Z,95.65
2018-06-09T02:14:04.765Z,95.55
2018-06-09T02:14:05.362Z,95.84
2018-06-09T02:14:59.868Z,95.84
2018-06-09T02:15:00.439Z,95.84
2018-06-09T02:15:01.038Z,95.55
2018-06-09T02:15:01.638Z,95.94
2018-06-09T02:15:02.242Z,95.94
2018-06-09T02:15:02.838Z,95.65
2018-06-09T02:15:03.438Z,95.94
2018-06-09T02:15:04.038Z,95.65
2018-06-09T02:15:57.520Z,96.42
2018-06-09T02:15:58.094Z,96.32
2018-06-09T02:15:58.691Z,96.42
2018-06-09T02:15:59.291Z,96.32
2018-06-09T02:15:59.891Z,96.32
2018-06-09T02:16:00.492Z,96.32
2018-06-09T02:16:01.092Z,96.61
2018-06-09T02:16:01.692Z,96.61
2018-06-09T02:16:56.195Z,96.80
2018-06-09T02:16:56.766Z,95.65
2018-06-09T02:16:57.366Z,96.80
2018-06-09T02:16:57.967Z,96.89
2018-06-09T02:16:58.570Z,96.80
2018-06-09T02:16:59.167Z,95.69
2018-06-09T02:16:59.770Z,96.51
2018-06-09T02:17:00.366Z,95.65
2018-06-09T02:17:53.847Z,95.84
2018-06-09T02:17:54.418Z,95.55
2018-06-09T02:17:55.019Z,95.65
2018-06-09T02:17:55.618Z,95.69
2018-06-09T02:17:56.219Z,95.74
2018-06-09T02:17:56.818Z,95.74
2018-06-09T02:17:57.423Z,95.69
2018-06-09T02:17:58.018Z,95.60
2018-06-09T02:18:51.600Z,96.99
2018-06-09T02:18:52.172Z,96.61
2018-06-09T02:18:52.776Z,96.42
2018-06-09T02:18:53.373Z,96.66
2018-06-09T02:18:53.972Z,96.42
2018-06-09T02:18:54.573Z,96.61
2018-06-09T02:18:55.173Z,96.66
2018-06-09T02:18:55.773Z,96.32
2018-06-09T02:19:49.253Z,96.32
2018-06-09T02:19:49.823Z,96.42
2018-06-09T02:19:50.424Z,96.46
2018-06-09T02:19:51.025Z,96.46
2018-06-09T02:19:51.623Z,96.42
2018-06-09T02:19:52.226Z,96.22
2018-06-09T02:19:52.826Z,96.89
2018-06-09T02:19:53.424Z,96.27
2018-06-09T02:20:47.995Z,95.84
2018-06-09T02:20:48.500Z,95.84
2018-06-09T02:20:49.099Z,95.65
2018-06-09T02:20:49.699Z,95.45
2018-06-09T02:20:50.300Z,95.69
2018-06-09T02:20:50.900Z,95.79
2018-06-09T02:20:51.499Z,95.69
2018-06-09T02:20:52.099Z,95.79
2018-06-09T02:21:45.581Z,96.66
2018-06-09T02:21:46.151Z,96.56
2018-06-09T02:21:46.753Z,96.66
2018-06-09T02:21:47.351Z,96.46
2018-06-09T02:21:47.953Z,95.60
2018-06-09T02:21:48.551Z,95.98
2018-06-09T02:21:49.156Z,96.03
2018-06-09T02:21:49.753Z,95.69
2018-06-09T02:22:44.256Z,95.65
2018-06-09T02:22:44.828Z,96.94
2018-06-09T02:22:45.428Z,96.94
2018-06-09T02:22:46.030Z,96.46
2018-06-09T02:22:46.627Z,96.56
2018-06-09T02:22:47.228Z,96.75
2018-06-09T02:22:47.831Z,96.75
2018-06-09T02:22:48.426Z,96.56
2018-06-09T02:23:42.931Z,96.85
2018-06-09T02:23:43.503Z,96.56
2018-06-09T02:23:44.105Z,96.56
2018-06-09T02:23:44.702Z,96.66
2018-06-09T02:23:45.303Z,96.66
2018-06-09T02:23:45.902Z,96.66
2018-06-09T02:23:46.501Z,96.66
2018-06-09T02:23:47.103Z,96.66
2018-06-09T02:24:40.582Z,95.50
2018-06-09T02:24:41.156Z,95.31
2018-06-09T02:24:41.756Z,95.12
2018-06-09T02:24:42.356Z,95.12
2018-06-09T02:24:42.955Z,95.40
2018-06-09T02:24:43.556Z,95.31
2018-06-09T02:24:44.157Z,95.40
2018-06-09T02:24:44.755Z,95.40
2018-06-09T02:25:39.259Z,95.31
2018-06-09T02:25:39.833Z,95.40
2018-06-09T02:25:40.430Z,94.82
2018-06-09T02:25:41.029Z,94.82
2018-06-09T02:25:41.630Z,95.21
2018-06-09T02:25:42.230Z,95.02
2018-06-09T02:25:42.831Z,94.82
2018-06-09T02:25:43.429Z,95.21
2018-06-09T02:26:36.911Z,95.40
2018-06-09T02:26:37.483Z,95.40
2018-06-09T02:26:38.105Z,95.40
2018-06-09T02:26:38.681Z,95.21
2018-06-09T02:26:39.282Z,95.31
2018-06-09T02:26:39.882Z,95.31
2018-06-09T02:26:40.484Z,95.31
2018-06-09T02:26:41.082Z,94.92
2018-06-09T02:27:35.587Z,95.50
2018-06-09T02:27:36.158Z,95.50
2018-06-09T02:27:36.759Z,95.50
2018-06-09T02:27:37.357Z,95.50
2018-06-09T02:27:37.957Z,95.50
2018-06-09T02:27:38.562Z,95.50
2018-06-09T02:27:39.158Z,95.50
2018-06-09T02:27:39.764Z,95.12
2018-06-09T02:28:34.262Z,96.46
2018-06-09T02:28:34.834Z,96.46
2018-06-09T02:28:35.434Z,96.27
2018-06-09T02:28:36.034Z,96.37
2018-06-09T02:28:36.634Z,96.46
2018-06-09T02:28:37.233Z,96.27
2018-06-09T02:28:37.835Z,96.37
2018-06-09T02:28:38.432Z,96.46
2018-06-09T02:29:31.912Z,96.75
2018-06-09T02:29:32.486Z,96.85
2018-06-09T02:29:33.086Z,96.75
2018-06-09T02:29:33.687Z,96.75
2018-06-09T02:29:34.287Z,96.85
2018-06-09T02:29:34.884Z,96.85
2018-06-09T02:29:35.486Z,96.85
2018-06-09T02:29:36.086Z,96.85
2018-06-09T02:30:29.669Z,97.24
2018-06-09T02:30:30.239Z,98.10
2018-06-09T02:30:30.841Z,97.33
2018-06-09T02:30:31.450Z,96.94
2018-06-09T02:30:32.040Z,97.52
2018-06-09T02:30:32.646Z,97.52
2018-06-09T02:30:33.241Z,97.52
2018-06-09T02:30:33.844Z,97.14
2018-06-09T02:31:28.343Z,97.72
2018-06-09T02:31:28.915Z,98.00
2018-06-09T02:31:29.514Z,97.81
2018-06-09T02:31:30.113Z,97.91
2018-06-09T02:31:30.715Z,97.81
2018-06-09T02:31:31.315Z,97.91
2018-06-09T02:31:31.918Z,98.00
2018-06-09T02:31:32.516Z,97.81
2018-06-09T02:32:27.018Z,97.24
2018-06-09T02:32:27.591Z,98.00
2018-06-09T02:32:28.193Z,97.14
2018-06-09T02:32:28.791Z,97.24
2018-06-09T02:32:29.391Z,97.04
2018-06-09T02:32:29.991Z,97.04
2018-06-09T02:32:30.592Z,96.85
2018-06-09T02:32:31.191Z,97.04
2018-06-09T02:33:24.673Z,97.14
2018-06-09T02:33:25.244Z,97.24
2018-06-09T02:33:25.844Z,97.24
2018-06-09T02:33:26.444Z,96.94
2018-06-09T02:33:27.045Z,96.94
2018-06-09T02:33:27.644Z,97.81
2018-06-09T02:33:28.248Z,97.52
2018-06-09T02:33:28.844Z,98.00
2018-06-09T02:34:22.324Z,98.68
2018-06-09T02:34:22.895Z,98.58
2018-06-09T02:34:23.501Z,98.77
2018-06-09T02:34:24.094Z,98.58
2018-06-09T02:34:24.696Z,98.97
2018-06-09T02:34:25.299Z,98.97
2018-06-09T02:34:25.898Z,98.97
2018-06-09T02:34:26.493Z,98.58
2018-06-09T02:35:20.081Z,99.06
2018-06-09T02:35:20.649Z,98.58
2018-06-09T02:35:21.251Z,99.35
2018-06-09T02:35:21.849Z,98.58
2018-06-09T02:35:22.449Z,99.16
2018-06-09T02:35:23.054Z,99.06
2018-06-09T02:35:23.651Z,99.06
2018-06-09T02:35:24.252Z,99.35
2018-06-09T02:36:18.754Z,99.16
2018-06-09T02:36:19.326Z,98.49
2018-06-09T02:36:19.923Z,98.49
2018-06-09T02:36:20.529Z,98.39
2018-06-09T02:36:21.123Z,98.39
2018-06-09T02:36:21.725Z,98.58
2018-06-09T02:36:22.333Z,98.58
2018-06-09T02:36:22.924Z,98.77
2018-06-09T02:37:16.404Z,97.81
2018-06-09T02:37:16.978Z,97.72
2018-06-09T02:37:17.577Z,97.72
2018-06-09T02:37:18.180Z,97.62
2018-06-09T02:37:18.777Z,98.00
2018-06-09T02:37:19.377Z,98.19
2018-06-09T02:37:19.982Z,97.81
2018-06-09T02:37:20.576Z,98.00
2018-06-09T02:38:15.081Z,98.68
2018-06-09T02:38:15.653Z,98.87
2018-06-09T02:38:16.252Z,98.87
2018-06-09T02:38:16.853Z,98.58
2018-06-09T02:38:17.453Z,98.97
2018-06-09T02:38:18.053Z,98.87
2018-06-09T02:38:18.652Z,98.49
2018-06-09T02:38:19.251Z,98.49
2018-06-09T02:39:13.760Z,98.87
2018-06-09T02:39:14.326Z,98.97
2018-06-09T02:39:14.925Z,99.16
2018-06-09T02:39:15.526Z,98.77
2018-06-09T02:39:16.127Z,98.77
2018-06-09T02:39:16.727Z,98.97
2018-06-09T02:39:17.327Z,99.16
2018-06-09T02:39:17.926Z,98.97
2018-06-09T02:40:11.407Z,99.99
2018-06-09T02:40:11.979Z,99.99
2018-06-09T02:40:12.579Z,99.99
2018-06-09T02:40:13.179Z,99.54
2018-06-09T02:40:13.779Z,99.99
2018-06-09T02:40:14.380Z,99.99
2018-06-09T02:40:14.984Z,99.64
2018-06-09T02:40:15.579Z,99.54
2018-06-09T02:41:10.087Z,98.39
2018-06-09T02:41:10.654Z,98.39
2018-06-09T02:41:11.259Z,98.39
2018-06-09T02:41:11.855Z,99.26
2018-06-09T02:41:12.459Z,99.35
2018-06-09T02:41:13.055Z,99.06
2018-06-09T02:41:13.661Z,99.44
2018-06-09T02:41:14.255Z,99.26
2018-06-09T02:42:08.830Z,99.59
2018-06-09T02:42:09.333Z,99.99
2018-06-09T02:42:09.936Z,99.54
2018-06-09T02:42:10.532Z,99.99
2018-06-09T02:42:11.136Z,99.99
2018-06-09T02:42:11.732Z,99.99
2018-06-09T02:42:12.334Z,99.99
2018-06-09T02:42:12.932Z,99.99
2018-06-09T02:43:06.519Z,99.54
2018-06-09T02:43:07.089Z,99.84
2018-06-09T02:43:07.689Z,99.84
2018-06-09T02:43:08.285Z,99.99
2018-06-09T02:43:08.885Z,99.93
2018-06-09T02:43:09.485Z,99.64
2018-06-09T02:43:10.089Z,99.69
2018-06-09T02:43:10.687Z,99.79
2018-06-09T02:44:05.189Z,99.74
2018-06-09T02:44:05.759Z,99.74
2018-06-09T02:44:06.361Z,99.84
2018-06-09T02:44:06.959Z,99.64
2018-06-09T02:44:07.564Z,99.99
2018-06-09T02:44:08.159Z,99.64
2018-06-09T02:44:08.758Z,99.69
2018-06-09T02:44:09.361Z,99.69
2018-06-09T02:45:02.842Z,99.74
2018-06-09T02:45:03.412Z,99.84
2018-06-09T02:45:04.013Z,99.99
2018-06-09T02:45:04.681Z,99.79
2018-06-09T02:45:05.213Z,99.40
2018-06-09T02:45:05.812Z,99.35
2018-06-09T02:45:06.412Z,99.74
2018-06-09T02:45:07.013Z,99.69
2018-06-09T02:46:00.492Z,99.99
2018-06-09T02:46:01.071Z,99.98
2018-06-09T02:46:01.665Z,99.99
2018-06-09T02:46:02.264Z,99.99
2018-06-09T02:46:02.864Z,99.98
2018-06-09T02:46:03.464Z,99.99
2018-06-09T02:46:04.066Z,99.99
2018-06-09T02:46:04.664Z,99.99
2018-06-09T02:46:58.144Z,99.99
2018-06-09T02:46:58.716Z,99.99
2018-06-09T02:46:59.316Z,99.99
2018-06-09T02:46:59.916Z,99.99
2018-06-09T02:47:00.520Z,99.99
2018-06-09T02:47:01.116Z,99.99
2018-06-09T02:47:01.717Z,99.99
2018-06-09T02:47:02.319Z,99.99
2018-06-09T02:47:56.819Z,99.99
2018-06-09T02:47:57.390Z,99.99
2018-06-09T02:47:57.989Z,99.99
2018-06-09T02:47:58.591Z,99.99
2018-06-09T02:47:59.191Z,99.99
2018-06-09T02:47:59.797Z,99.99
2018-06-09T02:48:00.392Z,99.99
2018-06-09T02:48:00.991Z,99.99
2018-06-09T02:48:55.496Z,99.99
2018-06-09T02:48:56.068Z,99.99
2018-06-09T02:48:56.667Z,99.99
2018-06-09T02:48:57.266Z,99.99
2018-06-09T02:48:57.868Z,99.99
2018-06-09T02:48:58.469Z,99.99
2018-06-09T02:48:59.069Z,99.99
2018-06-09T02:48:59.669Z,99.99
2018-06-09T02:49:54.171Z,99.99
2018-06-09T02:49:54.747Z,99.99
2018-06-09T02:49:55.343Z,99.99
2018-06-09T02:49:55.949Z,99.99
2018-06-09T02:49:56.557Z,99.99
2018-06-09T02:49:57.141Z,99.99
2018-06-09T02:49:57.748Z,99.99
2018-06-09T02:49:58.344Z,99.99
2018-06-09T02:50:51.825Z,99.99
2018-06-09T02:50:52.395Z,99.99
2018-06-09T02:50:52.995Z,99.99
2018-06-09T02:50:53.596Z,99.99
2018-06-09T02:50:54.194Z,99.99
2018-06-09T02:50:54.795Z,99.99
2018-06-09T02:50:55.397Z,99.99
2018-06-09T02:50:55.998Z,99.99
2018-06-09T02:51:50.500Z,99.99
2018-06-09T02:51:51.070Z,99.99
2018-06-09T02:51:51.671Z,99.99
2018-06-09T02:51:52.272Z,99.99
2018-06-09T02:51:52.870Z,99.99
2018-06-09T02:51:53.471Z,99.99
2018-06-09T02:51:54.074Z,99.99
2018-06-09T02:51:54.678Z,99.99
2018-06-09T02:52:49.175Z,99.99
2018-06-09T02:52:49.746Z,99.99
2018-06-09T02:52:50.348Z,99.99
2018-06-09T02:52:50.947Z,99.99
2018-06-09T02:52:51.546Z,99.99
2018-06-09T02:52:52.148Z,99.99
2018-06-09T02:52:52.748Z,99.99
2018-06-09T02:52:53.345Z,99.99
2018-06-09T02:53:47.850Z,99.98
2018-06-09T02:53:48.421Z,99.98
2018-06-09T02:53:49.025Z,99.99
2018-06-09T02:53:49.623Z,99.99
2018-06-09T02:53:50.222Z,99.99
2018-06-09T02:53:50.822Z,99.99
2018-06-09T02:53:51.422Z,99.99
2018-06-09T02:53:52.021Z,99.99
2018-06-09T02:54:46.526Z,99.98
2018-06-09T02:54:47.097Z,99.50
2018-06-09T02:54:47.698Z,99.99
2018-06-09T02:54:48.298Z,99.69
2018-06-09T02:54:48.897Z,99.50
2018-06-09T02:54:49.496Z,99.54
2018-06-09T02:54:50.100Z,99.69
2018-06-09T02:54:50.697Z,99.99
2018-06-09T02:55:44.177Z,99.59
2018-06-09T02:55:44.749Z,99.44
2018-06-09T02:55:45.349Z,99.40
2018-06-09T02:55:45.949Z,99.54
2018-06-09T02:55:46.551Z,99.35
2018-06-09T02:55:47.149Z,99.69
2018-06-09T02:55:47.751Z,99.40
2018-06-09T02:55:48.349Z,99.35
2018-06-09T02:56:41.830Z,98.97
2018-06-09T02:56:42.401Z,98.63
2018-06-09T02:56:43.001Z,98.77
2018-06-09T02:56:43.601Z,98.68
2018-06-09T02:56:44.201Z,98.68
2018-06-09T02:56:44.801Z,98.29
2018-06-09T02:56:45.405Z,98.19
2018-06-09T02:56:46.000Z,98.68
2018-06-09T02:57:40.506Z,96.46
2018-06-09T02:57:41.076Z,96.94
2018-06-09T02:57:41.676Z,96.27
2018-06-09T02:57:42.278Z,96.56
2018-06-09T02:57:42.879Z,96.85
2018-06-09T02:57:43.475Z,96.75
2018-06-09T02:57:44.078Z,96.66
2018-06-09T02:57:44.675Z,96.46
2018-06-09T02:58:38.161Z,95.12
2018-06-09T02:58:38.727Z,95.12
2018-06-09T02:58:39.330Z,95.31
2018-06-09T02:58:39.928Z,95.21
2018-06-09T02:58:40.527Z,95.31
2018-06-09T02:58:41.128Z,95.31
2018-06-09T02:58:41.729Z,94.92
2018-06-09T02:58:42.326Z,95.21
2018-06-09T02:59:35.808Z,94.44
2018-06-09T02:59:36.381Z,94.54
2018-06-09T02:59:36.984Z,94.34
2018-06-09T02:59:37.578Z,94.64
2018-06-09T02:59:38.179Z,94.44
2018-06-09T02:59:38.778Z,94.73
2018-06-09T02:59:39.390Z,94.73
2018-06-09T02:59:39.978Z,94.73
2018-06-09T03:00:33.564Z,94.73
2018-06-09T03:00:34.136Z,94.82
2018-06-09T03:00:34.734Z,94.73
2018-06-09T03:00:35.337Z,94.73
2018-06-09T03:00:35.935Z,94.82
2018-06-09T03:00:36.537Z,94.64
2018-06-09T03:00:37.134Z,94.82
2018-06-09T03:00:37.734Z,94.82
2018-06-09T03:01:32.243Z,94.44
2018-06-09T03:01:32.812Z,94.64
2018-06-09T03:01:33.414Z,94.64
2018-06-09T03:01:34.017Z,94.64
2018-06-09T03:01:34.610Z,94.64
2018-06-09T03:01:35.210Z,94.54
2018-06-09T03:01:35.812Z,94.34
2018-06-09T03:01:36.409Z,94.73
2018-06-09T03:02:30.913Z,92.52
2018-06-09T03:02:31.486Z,92.52
2018-06-09T03:02:32.085Z,92.52
2018-06-09T03:02:32.686Z,92.80
2018-06-09T03:02:33.285Z,92.52
2018-06-09T03:02:33.894Z,93.38
2018-06-09T03:02:34.488Z,93.48
2018-06-09T03:02:35.085Z,93.00
2018-06-09T03:03:28.566Z,93.77
2018-06-09T03:03:29.138Z,93.77
2018-06-09T03:03:29.737Z,93.77
2018-06-09T03:03:30.338Z,93.87
2018-06-09T03:03:30.936Z,93.96
2018-06-09T03:03:31.536Z,93.96
2018-06-09T03:03:32.139Z,93.77
2018-06-09T03:03:32.741Z,94.06
2018-06-09T03:04:26.216Z,92.90
2018-06-09T03:04:26.789Z,92.80
2018-06-09T03:04:27.389Z,92.80
2018-06-09T03:04:27.989Z,92.90
2018-06-09T03:04:28.589Z,92.42
2018-06-09T03:04:29.189Z,93.19
2018-06-09T03:04:29.790Z,93.19
2018-06-09T03:04:30.392Z,93.48
2018-06-09T03:05:23.871Z,93.87
2018-06-09T03:05:24.442Z,93.48
2018-06-09T03:05:25.042Z,93.48
2018-06-09T03:05:25.641Z,93.48
2018-06-09T03:05:26.241Z,93.48
2018-06-09T03:05:26.840Z,93.48
2018-06-09T03:05:27.444Z,93.67